Time;durP1;ratioP1;P1;durP2;ratioP2;P2;SDS_P1;SDS_P2;PMS_P1;PMS_P2;Temp;Humidity;BMP_temperature;BMP_pressure;BME280_temperature;BME280_humidity;BME280_pressure;Samples;Min_cycle;Max_cycle;Signal;HPM_P1;HPM_P2
2023/01/28 00:01:10;;;;;;;;;43.00;37.75;;;;;4.91;72.65;101760.53;4992546;28;45436;-70
2023/01/28 00:03:35;;;;;;;;;44.25;39.00;;;;;4.91;72.51;101764.03;4991623;28;45254;-69
2023/01/28 00:06:10;;;;;;;;;58.25;49.00;;;;;4.90;72.03;101761.41;4995090;28;45549;-70
2023/01/28 00:08:35;;;;;;;;;37.00;34.75;;;;;4.76;72.42;101735.28;4992287;28;46158;-70
2023/01/28 00:11:04;;;;;;;;;36.50;35.00;;;;;4.87;72.30;101758.78;4991033;28;49931;-69
2023/01/28 00:13:31;;;;;;;;;34.25;31.50;;;;;4.86;72.04;101764.84;4992568;28;45295;-68
2023/01/28 00:16:03;;;;;;;;;41.75;37.50;;;;;4.88;72.21;101761.41;4992280;28;45334;-69
2023/01/28 00:18:30;;;;;;;;;39.25;37.00;;;;;4.85;72.02;101755.28;4990473;28;48836;-68
2023/01/28 00:21:08;;;;;;;;;33.00;29.75;;;;;4.87;71.90;101758.78;4991998;28;45377;-68
2023/01/28 00:23:35;;;;;;;;;27.50;26.50;;;;;4.78;72.05;101755.28;4992177;28;45190;-70
2023/01/28 00:26:03;;;;;;;;;37.75;34.50;;;;;4.75;71.84;101744.84;4992638;28;45484;-70
2023/01/28 00:28:29;;;;;;;;;31.00;31.00;;;;;4.82;71.67;101756.19;4993617;28;45567;-68
2023/01/28 00:30:55;;;;;;;;;39.25;35.25;;;;;4.81;72.08;101765.72;4992218;28;45326;-69
2023/01/28 00:33:21;;;;;;;;;30.50;28.75;;;;;4.81;71.87;101764.88;4991610;28;45345;-69
2023/01/28 00:35:46;;;;;;;;;28.25;27.00;;;;;4.77;71.69;101761.34;4991745;28;45334;-68
2023/01/28 00:38:12;;;;;;;;;30.00;30.00;;;;;4.73;71.76;101759.63;4990861;28;47107;-68
2023/01/28 00:40:37;;;;;;;;;30.75;30.25;;;;;4.77;72.14;101768.28;4991860;28;45459;-69
2023/01/28 00:43:02;;;;;;;;;33.00;32.25;;;;;4.72;71.88;101759.59;4993095;28;45380;-68
2023/01/28 00:45:28;;;;;;;;;30.00;30.00;;;;;4.77;72.63;101761.34;4991844;28;45592;-69
2023/01/28 00:47:54;;;;;;;;;32.75;31.00;;;;;4.77;71.93;101758.75;4989798;28;46961;-69
2023/01/28 00:50:20;;;;;;;;;38.00;32.50;;;;;4.73;71.69;101751.78;4990213;28;45484;-68
2023/01/28 00:52:46;;;;;;;;;29.00;29.00;;;;;4.71;71.80;101757.84;4991751;28;45244;-70
2023/01/28 00:55:11;;;;;;;;;34.75;34.00;;;;;4.52;71.31;101731.72;4992073;28;45197;-69
2023/01/28 00:57:37;;;;;;;;;35.75;34.50;;;;;4.68;71.53;101758.72;4991076;28;46313;-69
2023/01/28 01:00:04;;;;;;;;;28.50;27.50;;;;;4.62;71.41;101748.28;5006656;28;45359;-70
2023/01/28 01:02:30;;;;;;;;;36.25;33.25;;;;;4.69;71.67;101765.69;4991203;27;45422;-69
2023/01/28 01:04:59;;;;;;;;;18.25;18.25;;;;;4.67;71.84;101759.59;5006493;28;45510;-69
2023/01/28 01:07:41;;;;;;;;;30.00;29.50;;;;;4.66;71.82;101757.84;4990966;28;45362;-70
2023/01/28 01:10:13;;;;;;;;;19.25;18.25;;;;;4.66;71.68;101765.69;4991442;28;45268;-69
2023/01/28 01:12:39;;;;;;;;;27.50;27.00;;;;;4.65;71.68;101770.00;4995513;27;45286;-69
2023/01/28 01:15:09;;;;;;;;;31.00;31.00;;;;;4.67;71.64;101767.41;4994835;28;45409;-70
2023/01/28 01:17:39;;;;;;;;;25.75;25.25;;;;;4.67;71.98;101767.41;4993919;28;46260;-70
2023/01/28 01:20:07;;;;;;;;;28.25;26.25;;;;;4.67;71.56;101765.66;4994502;27;45800;-69
2023/01/28 01:22:34;;;;;;;;;26.75;26.75;;;;;4.63;71.34;101768.28;4994863;28;45307;-69
2023/01/28 01:25:00;;;;;;;;;28.00;27.00;;;;;4.70;71.60;101774.34;4993673;28;45632;-70
2023/01/28 01:27:25;;;;;;;;;26.50;25.25;;;;;4.71;71.56;101763.94;4993000;28;46216;-69
2023/01/28 01:29:50;;;;;;;;;26.75;26.50;;;;;4.73;71.79;101777.84;4993704;28;45737;-69
2023/01/28 01:32:17;;;;;;;;;32.25;30.00;;;;;4.72;71.50;101785.66;4994848;28;45380;-70
2023/01/28 01:34:42;;;;;;;;;29.50;29.25;;;;;4.70;71.25;101772.63;4993240;28;45382;-70
2023/01/28 01:37:09;;;;;;;;;28.50;27.75;;;;;4.72;71.60;101772.63;4993676;28;45974;-69
2023/01/28 01:39:35;;;;;;;;;32.00;30.25;;;;;4.76;71.23;101787.41;4993173;28;45346;-70
2023/01/28 01:42:00;;;;;;;;;32.25;30.50;;;;;4.74;71.22;101781.31;4994116;28;45344;-70
2023/01/28 01:45:01;;;;;;;;;25.00;24.25;;;;;4.72;71.56;101783.06;4994571;28;45489;-68
2023/01/28 01:47:47;;;;;;;;;23.75;23.50;;;;;4.73;71.03;101783.06;4994616;28;46171;-70
2023/01/28 01:50:22;;;;;;;;;27.50;26.75;;;;;4.72;71.08;101783.94;4993691;28;45460;-69
2023/01/28 01:52:51;;;;;;;;;29.25;28.75;;;;;4.68;71.24;101780.44;4994329;28;45394;-67
2023/01/28 01:55:20;;;;;;;;;27.00;27.00;;;;;4.66;70.95;101781.31;4992909;28;45303;-71
2023/01/28 01:57:49;;;;;;;;;27.50;24.75;;;;;4.66;70.87;101786.53;4993752;28;46309;-72
2023/01/28 02:00:15;;;;;;;;;27.75;27.00;;;;;4.63;70.74;101770.88;4994049;28;45552;-70
2023/01/28 02:02:45;;;;;;;;;25.25;24.75;;;;;4.60;71.26;101784.75;4993673;27;45340;-70
2023/01/28 02:05:12;;;;;;;;;26.00;26.00;;;;;4.48;70.96;101777.78;4992796;28;45433;-70
2023/01/28 02:07:38;;;;;;;;;28.00;27.50;;;;;4.49;70.95;101782.13;4994149;28;45415;-69
2023/01/28 02:10:06;;;;;;;;;26.50;25.75;;;;;4.55;71.17;101788.22;4994373;28;45430;-70
2023/01/28 02:12:38;;;;;;;;;31.50;26.50;;;;;4.56;71.28;101783.00;4994298;28;45287;-69
2023/01/28 02:15:15;;;;;;;;;26.00;26.00;;;;;4.45;71.30;101775.16;4994725;28;45441;-70
2023/01/28 02:17:41;;;;;;;;;27.00;27.00;;;;;4.53;71.34;101790.81;4994537;28;46307;-70
2023/01/28 02:20:10;;;;;;;;;30.25;27.50;;;;;4.54;71.22;101787.34;4993690;28;45393;-69
2023/01/28 02:22:50;;;;;;;;;26.25;26.25;;;;;4.57;71.38;101786.50;4994567;28;45352;-69
2023/01/28 02:25:40;;;;;;;;;30.25;30.25;;;;;4.58;71.33;101785.63;4995042;28;45519;-69
2023/01/28 02:28:30;;;;;;;;;24.75;24.75;;;;;4.55;71.26;101786.47;4994925;28;45177;-70
2023/01/28 02:31:07;;;;;;;;;27.00;27.00;;;;;4.55;70.93;101785.59;4993126;28;45375;-69
2023/01/28 02:34:00;;;;;;;;;29.50;28.00;;;;;4.52;70.95;101784.72;4994566;28;45282;-69
2023/01/28 02:36:56;;;;;;;;;27.00;27.00;;;;;4.45;71.12;101784.69;4984214;28;45637;-71
2023/01/28 02:39:34;;;;;;;;;28.00;28.00;;;;;4.44;71.10;101795.97;4993212;28;46096;-68
2023/01/28 02:42:12;;;;;;;;;27.75;26.50;;;;;4.39;71.44;101785.53;4993119;28;45300;-69
2023/01/28 02:44:37;;;;;;;;;25.75;25.75;;;;;4.43;71.33;101791.63;4993664;28;45497;-69
2023/01/28 02:49:57;;;;;;;;;24.25;23.75;;;;;4.41;71.26;101789.03;4993207;28;45290;-70
2023/01/28 02:55:39;;;;;;;;;24.25;24.25;;;;;4.42;71.48;101793.38;4992888;28;45326;-71
2023/01/28 02:58:29;;;;;;;;;33.00;31.50;;;;;4.41;71.36;101790.75;4993376;28;45381;-70
2023/01/28 03:01:03;;;;;;;;;28.25;27.50;;;;;4.37;71.31;101782.91;4993325;28;46726;-68
2023/01/28 03:03:41;;;;;;;;;31.25;31.25;;;;;4.33;71.08;101788.13;4994806;28;45322;-69
2023/01/28 03:06:12;;;;;;;;;32.00;30.25;;;;;4.30;71.28;101793.31;4992727;28;45184;-69
2023/01/28 03:36:49;;;;;;;;;31.00;30.00;;;;;4.11;71.38;101815.75;5043375;28;45356;-70
2023/01/28 03:39:23;;;;;;;;;30.75;30.75;;;;;4.05;71.58;101814.84;5074231;27;45323;-69
2023/01/28 03:42:04;;;;;;;;;24.75;23.75;;;;;4.01;71.72;101810.50;5074129;28;45445;-69
2023/01/28 03:47:14;;;;;;;;;26.25;26.25;;;;;4.02;71.74;101814.84;5074763;28;45423;-69
2023/01/28 03:49:48;;;;;;;;;26.25;26.25;;;;;4.01;71.94;101820.91;5074238;28;45371;-69
2023/01/28 03:52:15;;;;;;;;;29.25;29.25;;;;;4.04;71.96;101820.03;5075700;27;45239;-70
2023/01/28 03:54:40;;;;;;;;;28.00;25.50;;;;;3.98;71.91;101802.66;5074462;28;46438;-70
2023/01/28 03:57:06;;;;;;;;;24.50;24.25;;;;;3.99;71.78;101808.72;5075392;27;45375;-70
2023/01/28 03:59:33;;;;;;;;;31.25;29.50;;;;;4.08;71.66;101821.81;5075327;27;45353;-69
2023/01/28 04:01:58;;;;;;;;;22.00;20.75;;;;;4.07;71.03;101827.88;5075174;27;45335;-70
2023/01/28 04:04:24;;;;;;;;;28.25;27.00;;;;;4.00;71.67;101807.88;5075130;28;45425;-68
2023/01/28 04:06:51;;;;;;;;;32.25;30.75;;;;;4.07;71.35;101822.66;5074995;27;45357;-70
2023/01/28 04:09:16;;;;;;;;;28.50;25.50;;;;;4.07;71.48;101827.88;5077223;27;45272;-69
2023/01/28 04:11:42;;;;;;;;;25.75;25.75;;;;;4.04;71.61;101833.06;5077476;27;45574;-69
2023/01/28 04:14:07;;;;;;;;;25.50;25.50;;;;;4.01;71.59;101823.50;5075494;27;45382;-68
2023/01/28 04:16:33;;;;;;;;;25.00;25.00;;;;;4.06;71.32;101826.13;5075321;27;45489;-69
2023/01/28 04:18:58;;;;;;;;;24.75;23.75;;;;;4.08;71.09;101829.63;5076768;27;45459;-69
2023/01/28 04:21:24;;;;;;;;;25.50;25.00;;;;;4.09;71.27;101831.34;5077639;27;45221;-69
2023/01/28 04:23:49;;;;;;;;;24.25;23.75;;;;;4.13;71.34;101838.31;5077074;28;45411;-70
2023/01/28 04:26:14;;;;;;;;;24.50;24.50;;;;;4.15;71.12;101836.59;5075761;27;45402;-70
2023/01/28 04:28:40;;;;;;;;;26.50;24.50;;;;;4.15;70.94;101836.59;5074980;27;45258;-68
2023/01/28 04:31:05;;;;;;;;;31.75;31.75;;;;;4.18;71.08;101841.84;5075578;27;45677;-68
2023/01/28 04:33:31;;;;;;;;;29.75;29.75;;;;;4.17;70.88;101842.69;5075575;27;46949;-69
2023/01/28 04:35:56;;;;;;;;;29.50;29.00;;;;;4.16;70.94;101846.16;5075589;28;45448;-69
2023/01/28 04:38:21;;;;;;;;;28.00;24.00;;;;;4.17;70.83;101847.91;5075276;27;45863;-69
2023/01/28 04:40:51;;;;;;;;;30.25;30.25;;;;;4.13;70.68;101848.75;5075521;27;45409;-69
2023/01/28 04:43:17;;;;;;;;;31.75;31.00;;;;;4.16;70.82;101850.50;5073787;28;47314;-69
2023/01/28 04:45:42;;;;;;;;;30.25;30.00;;;;;4.20;70.52;101849.69;5078185;27;45608;-69
2023/01/28 04:48:07;;;;;;;;;29.00;28.00;;;;;4.20;70.61;101850.53;5078344;27;45418;-70
2023/01/28 04:50:33;;;;;;;;;30.25;27.50;;;;;4.11;70.92;101844.41;5078390;27;45567;-70
2023/01/28 04:52:58;;;;;;;;;30.00;29.50;;;;;4.23;70.98;101855.75;5077719;27;46309;-70
2023/01/28 04:55:23;;;;;;;;;31.75;29.25;;;;;4.24;70.72;101857.53;5077502;28;56728;-69
2023/01/28 04:57:49;;;;;;;;;25.50;25.50;;;;;4.24;71.19;101862.75;5093729;27;45394;-69
2023/01/28 05:00:14;;;;;;;;;26.50;26.50;;;;;4.29;70.79;101854.09;5078605;27;45394;-69
2023/01/28 05:02:40;;;;;;;;;32.00;32.00;;;;;4.29;70.88;101859.28;5077888;27;45387;-68
2023/01/28 05:05:07;;;;;;;;;34.00;32.75;;;;;4.29;70.61;101865.38;5077925;27;45458;-69
2023/01/28 05:07:33;;;;;;;;;32.00;31.00;;;;;4.20;70.44;101845.31;5077831;27;45315;-69
2023/01/28 05:09:58;;;;;;;;;36.25;32.75;;;;;4.30;70.48;101861.91;5078089;27;45155;-70
2023/01/28 05:12:24;;;;;;;;;26.25;25.50;;;;;4.31;70.54;101863.63;5077479;27;45354;-69
2023/01/28 05:14:49;;;;;;;;;27.00;27.00;;;;;4.32;70.81;101860.16;5077683;28;49243;-68
2023/01/28 05:17:14;;;;;;;;;32.00;30.75;;;;;4.34;70.59;101865.41;5079014;27;45638;-69
2023/01/28 05:19:40;;;;;;;;;27.25;26.50;;;;;4.31;70.12;101860.19;5082994;27;45561;-70
2023/01/28 05:22:05;;;;;;;;;36.25;33.75;;;;;4.29;70.57;101862.75;5079585;27;45335;-69
2023/01/28 05:24:30;;;;;;;;;36.25;34.25;;;;;4.29;70.25;101857.53;5080861;27;47288;-71
2023/01/28 05:26:56;;;;;;;;;34.75;33.00;;;;;4.27;70.51;101858.41;5080533;27;45273;-68
2023/01/28 05:29:21;;;;;;;;;36.50;33.50;;;;;4.30;70.12;101863.66;5077872;27;45556;-69
2023/01/28 05:31:47;;;;;;;;;25.75;25.75;;;;;4.30;70.33;101861.03;5077735;27;45302;-68
2023/01/28 05:34:12;;;;;;;;;34.75;34.00;;;;;4.31;70.38;101866.25;5077571;28;45668;-69
2023/01/28 05:36:39;;;;;;;;;27.25;23.25;;;;;4.26;70.15;101869.69;5077276;27;45453;-68
2023/01/28 05:39:05;;;;;;;;;34.00;32.75;;;;;4.21;70.81;101875.72;5077599;27;45456;-68
2023/01/28 05:41:32;;;;;;;;;34.25;32.75;;;;;4.19;70.95;101879.19;5077119;27;45441;-69
2023/01/28 05:43:57;;;;;;;;;35.50;34.75;;;;;4.20;70.56;101878.31;5076508;28;45350;-69
2023/01/28 05:46:24;;;;;;;;;36.50;32.75;;;;;4.22;70.46;101882.66;5077335;27;45199;-68
2023/01/28 05:48:50;;;;;;;;;33.25;33.25;;;;;4.20;70.57;101870.50;5076418;28;45345;-70
2023/01/28 05:51:15;;;;;;;;;33.00;33.00;;;;;4.28;70.78;101873.19;5076460;28;46277;-70
2023/01/28 05:53:41;;;;;;;;;34.50;33.25;;;;;4.26;70.71;101873.16;5075847;28;45305;-69
2023/01/28 05:56:06;;;;;;;;;38.50;35.50;;;;;4.28;70.72;101874.03;5076587;27;45297;-69
2023/01/28 05:58:31;;;;;;;;;30.75;28.75;;;;;4.23;70.64;101876.59;5077411;28;45267;-68
2023/01/28 06:00:57;;;;;;;;;37.50;34.50;;;;;4.20;70.44;101880.94;5077062;27;45507;-69
2023/01/28 06:03:22;;;;;;;;;32.00;32.00;;;;;4.14;71.32;101889.56;5076862;27;45437;-68
2023/01/28 06:05:48;;;;;;;;;30.25;29.00;;;;;4.11;71.29;101868.69;5075968;28;45430;-69
2023/01/28 06:08:13;;;;;;;;;38.00;34.00;;;;;4.11;70.84;101878.25;5078365;27;45225;-70
2023/01/28 06:10:39;;;;;;;;;29.00;29.00;;;;;4.16;71.05;101879.16;5076901;27;45422;-68
2023/01/28 06:13:04;;;;;;;;;34.00;30.75;;;;;4.17;71.48;101886.13;5076554;27;45392;-69
2023/01/28 06:15:30;;;;;;;;;38.00;36.75;;;;;4.04;70.85;101872.13;5075611;28;45457;-69
2023/01/28 06:17:55;;;;;;;;;31.75;29.25;;;;;4.11;70.73;101891.28;5077380;27;45472;-69
2023/01/28 06:20:21;;;;;;;;;33.50;30.50;;;;;4.08;71.12;101890.41;5077543;27;46173;-68
2023/01/28 06:22:49;;;;;;;;;30.75;30.75;;;;;4.00;71.29;101888.56;5076648;27;45460;-69
2023/01/28 06:25:14;;;;;;;;;34.50;32.50;;;;;3.98;70.81;101883.38;5076737;27;45267;-70
2023/01/28 06:27:40;;;;;;;;;37.25;36.00;;;;;4.04;71.48;101898.16;5076986;27;45227;-68
2023/01/28 06:30:06;;;;;;;;;41.00;36.00;;;;;4.05;71.37;101897.28;5075378;28;45870;-70
2023/01/28 06:32:32;;;;;;;;;33.50;31.75;;;;;4.04;71.37;101890.34;5076860;28;45251;-69
2023/01/28 06:34:58;;;;;;;;;32.75;31.00;;;;;4.08;71.48;101892.09;5075210;28;45279;-69
2023/01/28 06:37:23;;;;;;;;;35.25;33.50;;;;;4.09;71.27;101899.06;5076877;27;45900;-68
2023/01/28 06:39:48;;;;;;;;;35.25;32.75;;;;;4.16;71.70;101908.66;5076794;27;46836;-69
2023/01/28 06:42:14;;;;;;;;;36.75;34.00;;;;;4.16;71.12;101916.47;5076614;27;45864;-69
2023/01/28 06:44:39;;;;;;;;;36.50;32.25;;;;;4.05;71.22;101892.09;5076543;27;45377;-70
2023/01/28 06:47:05;;;;;;;;;35.75;32.25;;;;;4.19;70.88;101923.47;5076920;27;45430;-69
2023/01/28 06:49:30;;;;;;;;;36.00;33.50;;;;;4.15;71.20;101924.28;5076260;27;46411;-69
2023/01/28 06:51:55;;;;;;;;;29.00;28.75;;;;;4.16;71.16;101920.84;5076403;27;45348;-68
2023/01/28 06:54:21;;;;;;;;;31.25;30.75;;;;;4.13;71.26;101932.09;5077500;28;48544;-69
2023/01/28 06:56:46;;;;;;;;;36.00;33.75;;;;;4.09;71.05;101920.78;5077524;27;45294;-69
2023/01/28 06:59:11;;;;;;;;;35.50;32.75;;;;;4.09;71.10;101930.31;5075895;28;58759;-68
2023/01/28 07:01:37;;;;;;;;;32.00;30.75;;;;;4.05;71.26;101913.81;5078558;28;45457;-70
2023/01/28 07:04:03;;;;;;;;;34.25;33.75;;;;;4.14;71.55;101928.63;5081388;27;45321;-68
2023/01/28 07:06:28;;;;;;;;;27.25;26.25;;;;;4.14;71.27;101930.38;5076499;27;45376;-69
2023/01/28 07:08:54;;;;;;;;;19.50;19.50;;;;;4.16;70.89;101941.66;5074351;28;47288;-68
2023/01/28 07:11:19;;;;;;;;;25.75;25.00;;;;;4.15;70.76;101939.91;5075844;27;45354;-70
2023/01/28 07:13:46;;;;;;;;;29.00;29.00;;;;;4.15;70.96;101943.38;5076135;27;45418;-69
2023/01/28 07:16:11;;;;;;;;;28.00;27.50;;;;;4.13;70.96;101939.03;5076212;27;45227;-69
2023/01/28 07:18:37;;;;;;;;;23.25;23.25;;;;;4.12;70.74;101943.34;5075737;27;45254;-68
2023/01/28 07:21:02;;;;;;;;;33.50;30.25;;;;;4.16;70.85;101947.72;5076193;28;52764;-69
2023/01/28 07:23:28;;;;;;;;;35.25;32.00;;;;;4.18;70.55;101937.34;5076033;27;45288;-69
2023/01/28 07:25:53;;;;;;;;;31.00;31.00;;;;;4.19;70.80;101939.94;5074559;27;45292;-69
2023/01/28 07:28:20;;;;;;;;;41.25;37.25;;;;;4.17;70.96;101946.88;5075544;27;46263;-69
2023/01/28 07:30:49;;;;;;;;;24.00;24.00;;;;;4.21;70.65;101950.41;5075373;27;45338;-68
2023/01/28 07:33:15;;;;;;;;;30.75;30.75;;;;;4.20;70.20;101953.84;5075515;27;45238;-69
2023/01/28 07:35:40;;;;;;;;;31.75;31.75;;;;;4.16;69.85;101950.34;5075707;27;45371;-69
2023/01/28 07:38:06;;;;;;;;;37.75;31.50;;;;;4.16;70.52;101958.16;5073554;28;56127;-70
2023/01/28 07:40:31;;;;;;;;;29.25;29.25;;;;;4.15;70.27;101961.63;5076831;27;45196;-68
2023/01/28 07:42:56;;;;;;;;;28.00;27.25;;;;;4.17;70.29;101952.09;5075784;27;45358;-71
2023/01/28 07:45:23;;;;;;;;;31.25;29.00;;;;;4.17;69.88;101956.44;5021858;27;45377;-68
2023/01/28 07:47:57;;;;;;;;;31.25;29.00;;;;;4.16;70.54;101958.16;4990738;28;46087;-69
2023/01/28 07:50:22;;;;;;;;;33.75;31.25;;;;;4.16;70.69;101962.50;4992241;28;45318;-70
2023/01/28 07:52:48;;;;;;;;;32.50;32.50;;;;;4.15;70.06;101963.38;4992165;28;45382;-70
2023/01/28 07:55:14;;;;;;;;;30.00;29.25;;;;;4.11;70.36;101956.38;4990943;28;45473;-69
2023/01/28 07:57:54;;;;;;;;;23.75;21.75;;;;;4.15;70.75;101960.75;4991522;28;47433;-69
2023/01/28 08:00:21;;;;;;;;;33.50;32.50;;;;;4.16;70.64;101962.50;4992017;28;45405;-68
2023/01/28 08:02:47;;;;;;;;;26.75;26.75;;;;;4.21;70.51;101961.66;4992156;28;45242;-68
2023/01/28 08:05:21;;;;;;;;;38.75;36.25;;;;;4.24;70.50;101966.94;4990858;28;45408;-69
2023/01/28 08:07:48;;;;;;;;;33.00;32.75;;;;;4.20;70.34;101959.91;4990327;28;46950;-69
2023/01/28 08:10:15;;;;;;;;;29.00;27.75;;;;;4.22;70.64;101972.97;4992079;28;45426;-69
2023/01/28 08:12:50;;;;;;;;;31.00;30.25;;;;;4.25;70.22;101975.59;4991065;28;45507;-69
2023/01/28 08:15:15;;;;;;;;;38.25;36.50;;;;;4.32;70.35;101972.19;4992206;28;45445;-68
2023/01/28 08:17:41;;;;;;;;;34.50;30.75;;;;;4.24;70.39;101953.03;4991452;28;53347;-68
2023/01/28 08:20:07;;;;;;;;;34.00;33.00;;;;;4.32;70.82;101963.53;4993901;28;52914;-69
2023/01/28 08:22:33;;;;;;;;;31.00;31.00;;;;;4.39;70.24;101979.19;4995178;28;45277;-68
2023/01/28 08:24:58;;;;;;;;;27.50;27.50;;;;;4.41;69.47;101974.00;4994822;28;53790;-68
2023/01/28 08:27:24;;;;;;;;;28.00;27.00;;;;;4.43;70.04;101969.69;4994901;28;63804;-69
2023/01/28 08:29:49;;;;;;;;;26.75;25.25;;;;;4.48;69.88;101975.81;4994709;28;45341;-69
2023/01/28 08:32:14;;;;;;;;;32.50;31.25;;;;;4.51;69.44;101975.81;4994696;28;45322;-70
2023/01/28 08:34:40;;;;;;;;;34.75;32.25;;;;;4.45;69.86;101962.75;4993049;28;45591;-69
2023/01/28 08:37:05;;;;;;;;;35.25;31.75;;;;;4.59;68.69;101978.47;4994372;27;45603;-70
2023/01/28 08:39:30;;;;;;;;;44.75;38.25;;;;;4.65;69.55;101988.09;4993334;28;45396;-68
2023/01/28 08:41:56;;;;;;;;;37.00;34.50;;;;;4.72;68.78;101991.59;4995067;28;45412;-70
2023/01/28 08:44:21;;;;;;;;;29.50;29.50;;;;;4.74;69.01;101993.34;4995190;28;49166;-70
2023/01/28 08:46:46;;;;;;;;;29.25;29.25;;;;;4.72;68.63;101988.97;4997504;28;61334;-70
2023/01/28 08:49:12;;;;;;;;;30.50;28.50;;;;;4.73;68.36;101989.00;4996028;28;45409;-70
2023/01/28 08:51:37;;;;;;;;;33.50;33.00;;;;;4.77;68.57;101997.69;4994636;28;54695;-70
2023/01/28 08:54:02;;;;;;;;;35.75;33.75;;;;;4.75;68.93;101994.22;4995345;28;45640;-71
2023/01/28 08:56:29;;;;;;;;;31.25;31.00;;;;;4.80;68.75;102010.78;4994991;28;45968;-70
2023/01/28 08:58:54;;;;;;;;;30.00;28.50;;;;;4.80;69.14;102009.03;4993214;28;45457;-70
2023/01/28 09:01:19;;;;;;;;;32.00;30.75;;;;;4.84;68.87;102004.72;4994268;28;45419;-70
2023/01/28 09:03:45;;;;;;;;;33.00;32.25;;;;;4.83;67.99;102011.66;4994986;28;45542;-71
2023/01/28 09:06:10;;;;;;;;;30.50;30.25;;;;;4.80;68.14;102002.97;4994529;28;46338;-70
2023/01/28 09:08:36;;;;;;;;;35.25;34.25;;;;;4.82;68.57;102004.72;4994755;28;45387;-71
2023/01/28 09:11:01;;;;;;;;;33.50;32.25;;;;;4.75;67.81;101994.22;4993881;28;45449;-70
2023/01/28 09:13:27;;;;;;;;;29.75;29.75;;;;;4.71;68.11;102006.38;4995544;28;45628;-70
2023/01/28 09:15:52;;;;;;;;;32.00;29.00;;;;;4.79;67.99;102022.94;4994657;28;46219;-71
2023/01/28 09:18:18;;;;;;;;;32.75;30.25;;;;;4.73;67.76;102022.00;4992412;28;45642;-70
2023/01/28 09:20:43;;;;;;;;;28.25;28.00;;;;;4.71;68.21;102016.78;4994552;28;45228;-70
2023/01/28 09:23:09;;;;;;;;;32.00;31.50;;;;;4.74;68.04;102021.16;4994298;28;45349;-69
2023/01/28 09:25:35;;;;;;;;;31.00;28.50;;;;;4.75;67.66;102025.50;4995737;28;46482;-70
2023/01/28 09:28:00;;;;;;;;;28.75;25.25;;;;;4.61;67.79;102007.16;5011386;28;45683;-70
2023/01/28 09:30:26;;;;;;;;;36.50;34.75;;;;;4.73;67.86;102029.81;4993443;28;45274;-69
2023/01/28 09:32:53;;;;;;;;;32.00;30.25;;;;;4.73;68.30;102030.72;4995414;28;45173;-70
2023/01/28 09:35:19;;;;;;;;;29.50;29.00;;;;;4.67;67.51;102034.13;4995480;28;46392;-69
2023/01/28 09:37:45;;;;;;;;;30.75;28.25;;;;;4.68;67.59;102035.03;4994457;28;45422;-70
2023/01/28 09:40:24;;;;;;;;;33.00;32.00;;;;;4.69;68.28;102039.38;4994434;28;45379;-70
2023/01/28 09:43:02;;;;;;;;;36.50;34.50;;;;;4.71;67.72;102040.25;4994745;28;45249;-70
2023/01/28 09:45:39;;;;;;;;;36.50;34.00;;;;;4.70;68.16;102038.50;4996136;28;46355;-70
2023/01/28 09:48:11;;;;;;;;;37.50;34.25;;;;;4.73;67.74;102035.03;4993992;28;45447;-69
2023/01/28 09:50:39;;;;;;;;;41.75;35.25;;;;;4.78;67.65;102043.81;4994074;28;45228;-69
2023/01/28 09:53:23;;;;;;;;;27.75;27.50;;;;;4.78;67.78;102043.81;4994042;28;45332;-71
2023/01/28 09:55:56;;;;;;;;;36.25;34.75;;;;;4.81;67.53;102046.44;4992465;28;47381;-69
2023/01/28 09:58:21;;;;;;;;;30.00;27.75;;;;;4.81;67.39;102039.47;4993918;28;45361;-69
2023/01/28 10:01:02;;;;;;;;;33.00;30.75;;;;;4.87;67.04;102042.97;4995829;28;45284;-70
2023/01/28 10:03:45;;;;;;;;;24.25;23.00;;;;;4.85;66.73;102042.97;4993908;28;45478;-70
2023/01/28 10:06:13;;;;;;;;;25.00;25.00;;;;;4.84;65.56;102038.63;4993274;28;45248;-70
2023/01/28 10:08:56;;;;;;;;;32.75;32.50;;;;;4.73;65.65;102028.09;4993970;28;45262;-69
2023/01/28 10:11:36;;;;;;;;;36.50;34.75;;;;;4.85;66.58;102049.91;4991968;28;45320;-70
2023/01/28 10:14:07;;;;;;;;;31.25;30.75;;;;;4.89;66.15;102047.34;4994630;28;45700;-70
2023/01/28 10:16:35;;;;;;;;;36.00;35.00;;;;;4.87;65.48;102042.97;4996292;28;45362;-70
2023/01/28 10:19:11;;;;;;;;;28.00;27.75;;;;;4.80;65.64;102050.75;4993443;28;45280;-72
2023/01/28 10:21:51;;;;;;;;;32.25;31.75;;;;;4.77;65.58;102053.34;4993623;28;45232;-70
2023/01/28 10:24:26;;;;;;;;;33.00;28.75;;;;;4.73;65.48;102053.28;4993512;28;45382;-69
2023/01/28 10:26:52;;;;;;;;;36.00;34.50;;;;;4.74;65.07;102048.09;4993613;28;46251;-70
2023/01/28 10:29:18;;;;;;;;;47.00;39.00;;;;;4.74;65.69;102063.75;4992973;28;45323;-70
2023/01/28 10:31:52;;;;;;;;;29.50;29.25;;;;;4.71;65.28;102060.22;4993814;28;45263;-71
2023/01/28 10:34:18;;;;;;;;;51.50;42.25;;;;;4.73;65.90;102063.72;4994224;28;45224;-71
2023/01/28 10:36:44;;;;;;;;;30.75;30.50;;;;;4.75;65.25;102069.81;4992791;28;46141;-70
2023/01/28 10:39:14;;;;;;;;;27.00;27.00;;;;;4.72;65.10;102064.56;4992996;28;45281;-70
2023/01/28 10:41:39;;;;;;;;;36.50;34.50;;;;;4.73;65.43;102067.22;4992824;28;45337;-68
2023/01/28 10:44:12;;;;;;;;;31.25;30.50;;;;;4.75;65.66;102072.41;4993978;28;45264;-71
2023/01/28 10:46:39;;;;;;;;;30.75;30.50;;;;;4.65;65.22;102054.09;4995938;28;46371;-70
2023/01/28 10:49:08;;;;;;;;;28.50;27.00;;;;;4.73;65.43;102075.03;4992668;28;45279;-70
2023/01/28 10:51:37;;;;;;;;;28.25;28.00;;;;;4.66;64.94;102068.03;4993157;28;45394;-70
2023/01/28 10:54:16;;;;;;;;;38.00;35.75;;;;;4.63;65.43;102070.59;4993413;28;45259;-70
2023/01/28 10:56:42;;;;;;;;;33.75;31.50;;;;;4.63;65.36;102073.22;4992274;28;47035;-70
2023/01/28 10:59:25;;;;;;;;;44.50;39.50;;;;;4.64;65.63;102069.75;4993034;28;45370;-70
2023/01/28 11:01:57;;;;;;;;;27.00;27.00;;;;;4.61;65.64;102073.19;4993110;28;45412;-70
2023/01/28 11:04:24;;;;;;;;;30.00;29.25;;;;;4.60;65.22;102066.22;4993221;28;45407;-69
2023/01/28 11:07:14;;;;;;;;;28.25;28.00;;;;;4.59;65.19;102072.28;4992572;28;47334;-70
2023/01/28 11:09:45;;;;;;;;;37.00;35.25;;;;;4.62;65.77;102074.06;4992366;28;45293;-70
2023/01/28 11:12:12;;;;;;;;;26.50;26.00;;;;;4.60;65.49;102065.38;4993478;28;45457;-71
2023/01/28 11:14:48;;;;;;;;;31.25;29.25;;;;;4.57;64.81;102068.81;4993356;28;45559;-70
2023/01/28 11:17:17;;;;;;;;;34.00;33.75;;;;;4.51;64.95;102056.59;4992531;28;45761;-71
2023/01/28 11:19:42;;;;;;;;;28.00;26.50;;;;;4.44;65.18;102049.59;4992610;28;45208;-71
2023/01/28 11:22:31;;;;;;;;;29.00;28.25;;;;;4.48;65.92;102053.97;4991547;28;45294;-70
2023/01/28 11:24:59;;;;;;;;;32.25;29.25;;;;;4.52;65.82;102045.31;4993189;28;45466;-70
2023/01/28 11:27:29;;;;;;;;;27.75;27.75;;;;;4.53;65.81;102047.06;4992201;28;46183;-70
2023/01/28 11:30:03;;;;;;;;;28.50;27.75;;;;;4.57;65.24;102044.50;4992402;28;45349;-71
2023/01/28 11:32:32;;;;;;;;;24.75;22.75;;;;;4.60;64.83;102039.31;4994214;28;45549;-70
2023/01/28 11:35:01;;;;;;;;;25.75;25.50;;;;;4.65;65.15;102035.00;4991195;28;45281;-69
2023/01/28 11:37:28;;;;;;;;;25.50;25.50;;;;;4.77;65.10;102044.63;4991865;28;46229;-70
2023/01/28 11:40:19;;;;;;;;;27.00;25.25;;;;;4.89;64.58;102044.75;4992160;28;45428;-70
2023/01/28 11:42:47;;;;;;;;;34.25;32.25;;;;;4.97;64.74;102047.38;4992135;28;45282;-70
2023/01/28 11:45:18;;;;;;;;;39.25;35.50;;;;;5.04;64.55;102043.97;5007952;28;45533;-70
2023/01/28 11:48:06;;;;;;;;;32.75;32.25;;;;;5.09;63.89;102046.63;5007352;27;46728;-70
2023/01/28 11:50:40;;;;;;;;;30.50;27.75;;;;;5.08;64.47;102053.53;4992424;28;45389;-70
2023/01/28 11:53:28;;;;;;;;;51.50;41.75;;;;;5.14;65.00;102042.28;5030920;28;45720;-70
2023/01/28 11:56:12;;;;;;;;;32.75;31.75;;;;;5.26;64.65;102044.97;5072150;28;45563;-70
2023/01/28 11:58:52;;;;;;;;;32.00;29.75;;;;;5.29;64.18;102044.09;5074436;27;46102;-71
2023/01/28 12:01:40;;;;;;;;;28.75;28.75;;;;;5.29;63.55;102046.72;5074951;28;45366;-70